St Stephan Airport LSTS

Flugplatz Daten

Name: St Stephan Airport

Ident: LSTS

Lat: 46,49739838

Long: 7,41257

Platzhöhe: 3304 ft

IataCode:

City:

Metar

2022/08/04 20:00
CYLC 042000Z 13007KT 6SM -RA BKN003 OVC008 06/05 A2945 RMK ST6ST2 LSTSTFD OBS/NXT 051100Z SLP979

Taf

Gewünschte Webcam nicht vorhanden? Dann fügen Sie eine hinzu. Sie wird dann so schnell wie möglich freigeschaltet
Url: Title: